createdAt,value
2022-12-13T00:00:30.729Z,94.20
2022-12-13T00:02:57.406Z,93.75
2022-12-13T00:05:24.032Z,93.77
2022-12-13T00:07:50.715Z,93.39
2022-12-13T00:10:17.449Z,93.54
2022-12-13T00:12:44.218Z,93.87
2022-12-13T00:15:11.388Z,93.40
2022-12-13T00:17:38.243Z,93.44
2022-12-13T00:20:05.644Z,93.50
2022-12-13T00:22:32.315Z,93.60
2022-12-13T00:24:59.052Z,93.87
2022-12-13T00:27:25.930Z,93.85
2022-12-13T00:29:52.706Z,93.52
2022-12-13T00:32:19.367Z,93.94
2022-12-13T00:34:46.053Z,93.67
2022-12-13T00:37:12.877Z,93.96
2022-12-13T00:39:39.864Z,94.04
2022-12-13T00:42:06.823Z,93.58
2022-12-13T00:44:33.518Z,93.26
2022-12-13T00:47:00.171Z,93.44
2022-12-13T00:49:26.918Z,93.00
2022-12-13T00:51:53.605Z,93.29
2022-12-13T00:54:20.333Z,93.73
2022-12-13T00:56:47.054Z,93.34
2022-12-13T00:59:15.529Z,93.28
2022-12-13T01:01:42.550Z,93.29
2022-12-13T01:04:10.439Z,93.17
2022-12-13T01:06:41.876Z,93.64
2022-12-13T01:09:17.157Z,93.33
2022-12-13T01:11:44.830Z,93.46
2022-12-13T01:14:11.895Z,93.44
2022-12-13T01:16:38.829Z,93.74
2022-12-13T01:19:05.531Z,93.75
2022-12-13T01:21:32.322Z,93.82
2022-12-13T01:24:05.356Z,93.70
2022-12-13T01:26:32.778Z,93.84
2022-12-13T01:28:59.968Z,93.23
2022-12-13T01:31:27.530Z,93.48
2022-12-13T01:33:54.191Z,92.99
2022-12-13T01:36:27.584Z,93.02
2022-12-13T01:38:58.672Z,92.87
2022-12-13T01:41:27.344Z,92.78
2022-12-13T01:44:00.040Z,92.78
2022-12-13T01:46:27.218Z,92.86
2022-12-13T01:48:58.127Z,92.61
2022-12-13T01:51:32.072Z,92.40
2022-12-13T01:54:03.168Z,92.60
2022-12-13T01:56:36.926Z,92.72
2022-12-13T01:59:05.748Z,92.92
2022-12-13T02:01:32.938Z,92.94
2022-12-13T02:03:59.841Z,93.53
2022-12-13T02:06:36.479Z,93.70
2022-12-13T02:09:05.902Z,93.23
2022-12-13T02:11:35.314Z,92.42
2022-12-13T02:14:02.171Z,92.17
2022-12-13T02:16:55.488Z,92.10
2022-12-13T02:19:53.534Z,92.30
2022-12-13T02:22:46.228Z,92.65
2022-12-13T02:25:14.255Z,92.39
2022-12-13T02:27:42.624Z,91.76
2022-12-13T02:30:25.298Z,91.36
2022-12-13T02:33:08.595Z,91.36
2022-12-13T02:35:53.295Z,91.89
2022-12-13T02:38:38.058Z,92.07
2022-12-13T02:41:36.357Z,92.70
2022-12-13T02:44:23.970Z,92.26
2022-12-13T02:47:00.132Z,92.11
2022-12-13T02:49:29.419Z,92.25
2022-12-13T02:51:59.367Z,92.74
2022-12-13T02:54:26.043Z,92.43
2022-12-13T02:57:00.706Z,92.27
2022-12-13T02:59:31.527Z,92.11
2022-12-13T03:02:10.107Z,92.32
2022-12-13T03:05:12.554Z,91.22
2022-12-13T03:07:49.791Z,91.63
2022-12-13T03:10:24.054Z,92.20
2022-12-13T03:13:06.016Z,91.93
2022-12-13T03:15:47.766Z,92.28
2022-12-13T03:18:21.439Z,92.35
2022-12-13T03:20:50.385Z,92.42
2022-12-13T03:23:19.842Z,92.39
2022-12-13T03:25:49.876Z,92.24
2022-12-13T03:28:16.792Z,92.33
2022-12-13T03:30:43.660Z,91.79
2022-12-13T03:33:13.641Z,92.07
2022-12-13T03:35:44.775Z,92.20
2022-12-13T03:38:22.027Z,92.09
2022-12-13T03:40:53.655Z,91.97
2022-12-13T03:43:22.059Z,92.16
2022-12-13T03:45:49.317Z,92.65
2022-12-13T03:48:22.629Z,93.15
2022-12-13T03:50:52.238Z,93.31
2022-12-13T03:53:23.368Z,93.95
2022-12-13T03:56:02.453Z,93.75
2022-12-13T03:58:35.696Z,93.52
2022-12-13T04:01:05.722Z,93.09
2022-12-13T04:03:32.392Z,93.21
2022-12-13T04:05:59.081Z,93.31
2022-12-13T04:08:25.824Z,93.11
2022-12-13T04:10:52.587Z,93.19
2022-12-13T04:13:34.553Z,93.66
2022-12-13T04:16:02.689Z,93.42
2022-12-13T04:18:29.931Z,93.28
2022-12-13T04:20:58.177Z,93.35
2022-12-13T04:23:24.801Z,93.02
2022-12-13T04:25:52.875Z,92.03
2022-12-13T04:28:22.830Z,91.73
2022-12-13T04:30:53.012Z,91.22
2022-12-13T04:33:22.428Z,91.20
2022-12-13T04:35:50.315Z,91.30
2022-12-13T04:38:17.427Z,91.76
2022-12-13T04:40:44.139Z,92.45
2022-12-13T04:43:11.118Z,92.60
2022-12-13T04:45:37.810Z,92.48
2022-12-13T04:48:04.910Z,92.71
2022-12-13T04:50:31.532Z,92.77
2022-12-13T04:52:58.214Z,92.73
2022-12-13T04:55:24.902Z,91.87
2022-12-13T04:57:51.585Z,91.95
2022-12-13T05:00:18.318Z,91.67
2022-12-13T05:02:44.994Z,92.28
2022-12-13T05:05:12.238Z,92.46
2022-12-13T05:07:41.840Z,92.57
2022-12-13T05:10:11.093Z,92.03
2022-12-13T05:12:37.845Z,92.13
2022-12-13T05:15:05.360Z,91.88
2022-12-13T05:17:32.115Z,90.82
2022-12-13T05:19:58.771Z,91.54
2022-12-13T05:22:25.516Z,91.41
2022-12-13T05:24:52.252Z,91.76
2022-12-13T05:27:25.130Z,91.79
2022-12-13T05:30:02.752Z,92.15
2022-12-13T05:32:42.550Z,91.60
2022-12-13T05:35:12.825Z,92.44
2022-12-13T05:37:39.632Z,91.91
2022-12-13T05:40:06.962Z,92.75
2022-12-13T05:42:33.656Z,91.71
2022-12-13T05:45:00.330Z,91.86
2022-12-13T05:47:26.983Z,91.30
2022-12-13T05:49:53.739Z,91.25
2022-12-13T05:52:22.312Z,91.40
2022-12-13T05:55:00.963Z,91.63
2022-12-13T05:57:28.119Z,91.12
2022-12-13T05:59:55.116Z,91.28
2022-12-13T06:02:22.221Z,91.69
2022-12-13T06:04:49.164Z,92.27
2022-12-13T06:07:15.849Z,92.30
2022-12-13T06:09:43.681Z,92.14
2022-12-13T06:12:12.667Z,91.81
2022-12-13T06:15:00.870Z,91.70
2022-12-13T06:17:36.847Z,91.07
2022-12-13T06:20:24.451Z,91.45
2022-12-13T06:22:53.270Z,90.70
2022-12-13T06:25:30.582Z,90.80
2022-12-13T06:28:00.968Z,91.35
2022-12-13T06:30:29.615Z,91.11
2022-12-13T06:32:57.021Z,91.04
2022-12-13T06:35:28.748Z,91.38
2022-12-13T06:38:01.148Z,91.55
2022-12-13T06:40:30.761Z,91.69
2022-12-13T06:42:57.953Z,92.11
2022-12-13T06:45:26.963Z,91.84
2022-12-13T06:47:53.721Z,91.32
2022-12-13T06:50:20.390Z,90.81
2022-12-13T06:52:47.461Z,91.54
2022-12-13T06:55:14.557Z,91.23
2022-12-13T06:57:41.782Z,91.90
2022-12-13T07:00:10.186Z,92.01
2022-12-13T07:02:38.451Z,92.48
2022-12-13T07:05:06.219Z,92.11
2022-12-13T07:07:32.920Z,92.46
2022-12-13T07:09:59.747Z,91.85
2022-12-13T07:12:26.612Z,92.41
2022-12-13T07:14:53.315Z,92.04
2022-12-13T07:17:32.641Z,92.12
2022-12-13T07:20:08.452Z,92.50
2022-12-13T07:22:39.893Z,91.88
2022-12-13T07:25:27.170Z,92.33
2022-12-13T07:28:02.274Z,91.57
2022-12-13T07:30:31.516Z,92.27
2022-12-13T07:32:58.266Z,92.50
2022-12-13T07:35:28.164Z,92.19
2022-12-13T07:37:54.981Z,92.97
2022-12-13T07:40:21.658Z,93.27
2022-12-13T07:42:51.550Z,92.52
2022-12-13T07:45:18.676Z,92.03
2022-12-13T07:47:45.565Z,92.01
2022-12-13T07:50:24.222Z,92.43
2022-12-13T07:52:53.514Z,91.69
2022-12-13T07:55:23.274Z,91.27
2022-12-13T07:58:06.307Z,90.73
2022-12-13T08:00:33.294Z,91.08
2022-12-13T08:03:01.969Z,91.55
2022-12-13T08:05:29.310Z,90.03
2022-12-13T08:08:07.805Z,88.88
2022-12-13T08:10:34.520Z,87.82
2022-12-13T08:13:03.194Z,87.38
2022-12-13T08:15:30.581Z,86.74
2022-12-13T08:17:57.974Z,85.41
2022-12-13T08:20:24.671Z,85.36
2022-12-13T08:22:56.020Z,84.94
2022-12-13T08:25:29.619Z,83.58
2022-12-13T08:28:01.482Z,83.28
2022-12-13T08:30:30.590Z,84.05
2022-12-13T08:32:57.685Z,84.52
2022-12-13T08:35:33.773Z,84.30
2022-12-13T08:38:01.182Z,83.01
2022-12-13T08:40:28.011Z,83.07
2022-12-13T08:42:56.086Z,83.22
2022-12-13T08:45:24.252Z,82.65
2022-12-13T08:47:50.919Z,82.06
2022-12-13T08:50:17.725Z,81.76
2022-12-13T08:52:45.260Z,80.53
2022-12-13T08:55:14.428Z,80.85
2022-12-13T08:57:42.514Z,81.82
2022-12-13T09:00:14.065Z,81.34
2022-12-13T09:02:40.910Z,80.85
2022-12-13T09:05:09.196Z,80.31
2022-12-13T09:07:36.965Z,80.78
2022-12-13T09:10:07.283Z,81.09
2022-12-13T09:12:52.300Z,80.81
2022-12-13T09:15:34.278Z,81.10
2022-12-13T09:18:04.118Z,81.26
2022-12-13T09:20:32.333Z,80.90
2022-12-13T09:23:14.244Z,81.65
2022-12-13T09:26:05.912Z,80.47
2022-12-13T09:28:34.868Z,80.49
2022-12-13T09:31:02.008Z,79.91
2022-12-13T09:33:30.598Z,79.37
2022-12-13T09:35:57.955Z,76.47
2022-12-13T09:38:24.660Z,76.17
2022-12-13T09:40:59.195Z,74.53
2022-12-13T09:43:33.521Z,72.92
2022-12-13T09:46:22.932Z,69.98
2022-12-13T09:49:01.601Z,68.58
2022-12-13T09:51:41.490Z,67.57
2022-12-13T09:54:21.184Z,66.39
2022-12-13T09:56:51.177Z,65.77
2022-12-13T09:59:23.954Z,65.68
2022-12-13T10:01:50.696Z,64.66
2022-12-13T10:04:18.268Z,64.19
2022-12-13T10:06:44.946Z,64.85
2022-12-13T10:09:14.269Z,65.47
2022-12-13T10:11:56.542Z,65.59
2022-12-13T10:14:31.457Z,63.58
2022-12-13T10:17:02.709Z,63.96
2022-12-13T10:19:36.844Z,62.58
2022-12-13T10:22:06.113Z,63.91
2022-12-13T10:24:48.311Z,62.49
2022-12-13T10:27:18.153Z,60.78
2022-12-13T10:30:00.291Z,61.41
2022-12-13T10:32:28.092Z,61.50
2022-12-13T10:34:55.439Z,60.46
2022-12-13T10:37:23.113Z,62.98
2022-12-13T10:39:50.339Z,63.28
2022-12-13T10:42:23.704Z,63.64
2022-12-13T10:45:14.245Z,62.68
2022-12-13T10:47:44.709Z,62.83
2022-12-13T10:50:28.637Z,64.03
2022-12-13T10:52:57.662Z,66.05
2022-12-13T10:55:25.944Z,65.83
2022-12-13T10:57:55.520Z,66.89
2022-12-13T11:00:38.019Z,65.59
2022-12-13T11:03:05.826Z,66.16
2022-12-13T11:05:35.176Z,66.85
2022-12-13T11:08:27.109Z,64.53
2022-12-13T11:10:59.241Z,65.96
2022-12-13T11:13:35.005Z,66.75
2022-12-13T11:16:02.871Z,67.02
2022-12-13T11:18:37.458Z,67.99
2022-12-13T11:21:07.958Z,69.37
2022-12-13T11:23:39.704Z,69.31
2022-12-13T11:26:10.679Z,68.87
2022-12-13T11:29:07.551Z,71.00
2022-12-13T11:31:36.299Z,72.51
2022-12-13T11:34:18.199Z,71.07
2022-12-13T11:36:54.192Z,73.87
2022-12-13T11:39:33.134Z,74.13
2022-12-13T11:42:22.625Z,75.00
2022-12-13T11:45:11.755Z,75.37
2022-12-13T11:48:02.232Z,75.35
2022-12-13T11:50:34.575Z,75.79
2022-12-13T11:53:19.035Z,73.72
2022-12-13T11:55:54.633Z,74.84
2022-12-13T12:01:38.216Z,75.88
2022-12-13T12:04:29.666Z,75.88
2022-12-13T12:07:24.606Z,76.57
2022-12-13T12:09:58.181Z,76.27
2022-12-13T12:12:33.682Z,76.40
2022-12-13T12:15:26.521Z,77.29
2022-12-13T12:17:55.762Z,78.15
2022-12-13T12:20:37.309Z,78.12
2022-12-13T12:23:20.985Z,77.62
2022-12-13T12:25:57.953Z,77.58
2022-12-13T12:28:44.198Z,78.17
2022-12-13T12:31:29.796Z,77.53
2022-12-13T12:34:10.243Z,77.71
2022-12-13T12:36:52.222Z,78.22
2022-12-13T12:39:20.113Z,78.59
2022-12-13T12:42:18.846Z,78.17
2022-12-13T12:45:10.680Z,78.32
2022-12-13T12:50:59.761Z,78.68
2022-12-13T12:53:43.474Z,78.75
2022-12-13T12:56:41.267Z,78.60
2022-12-13T12:59:36.969Z,79.00
2022-12-13T13:02:16.162Z,79.08
2022-12-13T13:04:48.774Z,78.50
2022-12-13T13:07:24.107Z,78.54
2022-12-13T13:09:54.803Z,77.91
2022-12-13T13:12:29.536Z,77.44
2022-12-13T13:14:57.962Z,77.25
2022-12-13T13:17:24.670Z,77.39
2022-12-13T13:20:23.417Z,77.92
2022-12-13T13:23:10.258Z,78.18
2022-12-13T13:25:54.316Z,77.76
2022-12-13T13:28:25.946Z,76.60
2022-12-13T13:31:09.265Z,77.35
2022-12-13T13:33:44.501Z,77.27
2022-12-13T13:36:46.862Z,76.21
2022-12-13T13:39:34.424Z,74.55
2022-12-13T13:42:09.914Z,74.48
2022-12-13T13:44:51.921Z,71.90
2022-12-13T13:47:19.611Z,70.48
2022-12-13T13:50:21.105Z,68.60
2022-12-13T13:53:04.201Z,67.18
2022-12-13T13:55:48.345Z,68.34
2022-12-13T13:58:45.652Z,67.49
2022-12-13T14:01:27.796Z,67.52
2022-12-13T14:04:31.750Z,68.54
2022-12-13T14:07:14.745Z,69.10
2022-12-13T14:10:08.154Z,69.19
2022-12-13T14:12:35.866Z,70.19
2022-12-13T14:15:42.369Z,70.82
2022-12-13T14:18:46.782Z,69.29
2022-12-13T14:21:29.818Z,70.16
2022-12-13T14:24:24.875Z,70.77
2022-12-13T14:27:24.341Z,70.79
2022-12-13T14:29:58.342Z,70.51
2022-12-13T14:32:29.374Z,72.38
2022-12-13T14:34:59.759Z,74.01
2022-12-13T14:37:56.673Z,75.23
2022-12-13T14:40:28.271Z,76.46
2022-12-13T14:42:55.061Z,77.59
2022-12-13T14:45:25.080Z,78.01
2022-12-13T14:47:54.592Z,79.06
2022-12-13T14:50:21.952Z,79.42
2022-12-13T14:52:50.602Z,80.46
2022-12-13T14:55:30.398Z,81.61
2022-12-13T14:57:59.666Z,82.24
2022-12-13T15:00:28.578Z,82.73
2022-12-13T15:02:59.951Z,83.07
2022-12-13T15:05:29.516Z,84.18
2022-12-13T15:07:56.641Z,84.73
2022-12-13T15:10:30.102Z,84.95
2022-12-13T15:12:57.092Z,85.79
2022-12-13T15:15:31.342Z,86.46
2022-12-13T15:18:17.320Z,86.55
2022-12-13T15:20:45.552Z,87.08
2022-12-13T15:23:31.394Z,87.23
2022-12-13T15:26:03.473Z,87.77
2022-12-13T15:28:35.297Z,87.72
2022-12-13T15:31:04.321Z,88.31
2022-12-13T15:33:35.435Z,88.21
2022-12-13T15:36:15.622Z,88.47
2022-12-13T15:38:58.739Z,88.80
2022-12-13T15:41:29.634Z,89.57
2022-12-13T15:44:00.547Z,89.85
2022-12-13T15:46:30.850Z,90.02
2022-12-13T15:49:01.171Z,90.71
2022-12-13T15:51:28.711Z,90.57
2022-12-13T15:54:20.000Z,90.80
2022-12-13T15:57:17.646Z,90.17
2022-12-13T15:59:44.854Z,90.33
2022-12-13T16:02:15.242Z,89.77
2022-12-13T16:04:42.075Z,90.32
2022-12-13T16:07:22.735Z,90.50
2022-12-13T16:09:50.686Z,90.02
2022-12-13T16:12:24.859Z,90.99
2022-12-13T16:14:52.021Z,90.99
2022-12-13T16:17:25.126Z,91.08
2022-12-13T16:19:54.116Z,91.24
2022-12-13T16:22:23.824Z,91.26
2022-12-13T16:24:52.820Z,91.40
2022-12-13T16:27:19.511Z,91.13
2022-12-13T16:29:46.129Z,91.69
2022-12-13T16:32:12.855Z,91.52
2022-12-13T16:34:39.721Z,91.57
2022-12-13T16:37:08.817Z,91.10
2022-12-13T16:39:52.581Z,91.15
2022-12-13T16:42:19.653Z,91.28
2022-12-13T16:44:48.132Z,91.68
2022-12-13T16:47:22.371Z,91.98
2022-12-13T16:49:53.816Z,91.94
2022-12-13T16:52:22.054Z,91.73
2022-12-13T16:54:48.876Z,91.76
2022-12-13T16:57:15.541Z,91.14
2022-12-13T16:59:42.202Z,90.82
2022-12-13T17:02:17.834Z,90.25
2022-12-13T17:04:44.732Z,90.19
2022-12-13T17:07:11.417Z,89.73
2022-12-13T17:09:39.107Z,88.98
2022-12-13T17:12:06.044Z,89.23
2022-12-13T17:14:32.722Z,88.63
2022-12-13T17:16:59.469Z,87.52
2022-12-13T17:19:26.285Z,88.22
2022-12-13T17:21:53.408Z,87.92
2022-12-13T17:24:20.123Z,87.62
2022-12-13T17:26:53.814Z,87.68
2022-12-13T17:29:21.983Z,87.30
2022-12-13T17:31:48.683Z,86.95
2022-12-13T17:34:15.574Z,87.07
2022-12-13T17:36:43.612Z,86.63
2022-12-13T17:39:12.219Z,87.02
2022-12-13T17:41:39.113Z,86.86
2022-12-13T17:44:06.183Z,86.82
2022-12-13T17:46:34.737Z,86.97
2022-12-13T17:49:02.170Z,86.51
2022-12-13T17:51:29.505Z,86.87
2022-12-13T17:53:56.226Z,86.35
2022-12-13T17:56:22.889Z,85.39
2022-12-13T17:58:49.680Z,85.85
2022-12-13T18:01:17.700Z,85.86
2022-12-13T18:03:45.003Z,85.95
2022-12-13T18:06:12.217Z,86.08
2022-12-13T18:08:40.605Z,85.52
2022-12-13T18:14:06.142Z,86.14
2022-12-13T18:16:37.439Z,86.29
2022-12-13T18:19:07.373Z,86.08
2022-12-13T18:21:35.615Z,86.53
2022-12-13T18:24:02.505Z,86.41
2022-12-13T18:26:29.400Z,86.62
2022-12-13T18:28:56.220Z,86.55
2022-12-13T18:31:24.627Z,86.81
2022-12-13T18:33:53.451Z,86.31
2022-12-13T18:36:22.182Z,86.18
2022-12-13T18:38:49.064Z,86.24
2022-12-13T18:41:18.396Z,85.94
2022-12-13T18:43:45.906Z,85.89
2022-12-13T18:46:14.639Z,85.23
2022-12-13T18:48:41.916Z,85.24
2022-12-13T18:51:09.784Z,85.56
2022-12-13T18:53:37.824Z,85.80
2022-12-13T18:56:10.438Z,84.76
2022-12-13T18:58:41.873Z,85.27
2022-12-13T19:01:11.794Z,85.29
2022-12-13T19:03:38.975Z,85.11
2022-12-13T19:06:07.080Z,85.02
2022-12-13T19:08:36.595Z,84.37
2022-12-13T19:11:03.860Z,84.25
2022-12-13T19:13:32.269Z,85.00
2022-12-13T19:16:06.260Z,84.81
2022-12-13T19:18:33.624Z,84.67
2022-12-13T19:21:00.339Z,84.59
2022-12-13T19:23:30.461Z,83.89
2022-12-13T19:25:58.328Z,84.66
2022-12-13T19:28:24.957Z,84.86
2022-12-13T19:30:52.143Z,84.19
2022-12-13T19:33:19.407Z,84.28
2022-12-13T19:35:48.912Z,84.06
2022-12-13T19:38:15.576Z,84.63
2022-12-13T19:40:47.018Z,84.54
2022-12-13T19:43:13.720Z,84.89
2022-12-13T19:45:45.558Z,84.97
2022-12-13T19:48:13.055Z,84.83
2022-12-13T19:50:40.365Z,84.33
2022-12-13T19:53:08.065Z,84.10
2022-12-13T19:55:35.046Z,84.45
2022-12-13T19:58:02.132Z,84.36
2022-12-13T20:00:28.875Z,84.17
2022-12-13T20:02:55.851Z,84.74
2022-12-13T20:05:22.572Z,84.64
2022-12-13T20:07:49.925Z,84.70
2022-12-13T20:10:16.695Z,84.48
2022-12-13T20:12:43.387Z,84.38
2022-12-13T20:15:10.403Z,84.32
2022-12-13T20:17:37.104Z,84.70
2022-12-13T20:20:05.364Z,84.76
2022-12-13T20:22:33.233Z,84.33
2022-12-13T20:24:59.893Z,84.70
2022-12-13T20:27:27.112Z,85.19
2022-12-13T20:29:53.834Z,85.14
2022-12-13T20:32:21.365Z,85.37
2022-12-13T20:34:54.346Z,85.20
2022-12-13T20:37:21.623Z,85.02
2022-12-13T20:39:48.330Z,85.44
2022-12-13T20:42:17.484Z,85.15
2022-12-13T20:44:44.789Z,84.88
2022-12-13T20:47:11.544Z,84.97
2022-12-13T20:49:38.266Z,84.53
2022-12-13T20:52:05.290Z,84.71
2022-12-13T20:54:32.016Z,84.55
2022-12-13T20:56:58.668Z,84.47
2022-12-13T20:59:25.431Z,84.59
2022-12-13T21:01:52.501Z,84.65
2022-12-13T21:04:19.306Z,83.08
2022-12-13T21:06:45.946Z,83.07
2022-12-13T21:09:12.938Z,81.90
2022-12-13T21:11:40.743Z,81.71
2022-12-13T21:14:11.154Z,83.07
2022-12-13T21:16:43.432Z,84.67
2022-12-13T21:19:12.986Z,84.73
2022-12-13T21:21:39.685Z,84.64
2022-12-13T21:24:06.690Z,84.71
2022-12-13T21:26:36.157Z,84.14
2022-12-13T21:29:06.717Z,84.74
2022-12-13T21:31:35.369Z,85.50
2022-12-13T21:34:02.494Z,86.08
2022-12-13T21:36:33.601Z,86.59
2022-12-13T21:39:02.537Z,85.18
2022-12-13T21:41:29.686Z,85.06
2022-12-13T21:43:56.477Z,85.21
2022-12-13T21:46:35.737Z,84.46
2022-12-13T21:49:12.171Z,84.21
2022-12-13T21:51:42.151Z,84.92
2022-12-13T21:54:12.837Z,85.41
2022-12-13T21:56:54.875Z,85.80
2022-12-13T21:59:24.356Z,86.61
2022-12-13T22:02:10.043Z,86.46
2022-12-13T22:04:38.591Z,86.23
2022-12-13T22:07:07.233Z,86.42
2022-12-13T22:09:36.013Z,86.29
2022-12-13T22:12:06.566Z,86.09
2022-12-13T22:14:33.210Z,85.83
2022-12-13T22:16:59.893Z,85.93
2022-12-13T22:19:28.051Z,86.59
2022-12-13T22:21:54.718Z,87.57
2022-12-13T22:24:21.486Z,88.25
2022-12-13T22:26:48.109Z,88.17
2022-12-13T22:29:15.279Z,88.52
2022-12-13T22:31:42.105Z,88.72
2022-12-13T22:34:09.076Z,89.08
2022-12-13T22:36:35.771Z,89.17
2022-12-13T22:39:03.869Z,88.09
2022-12-13T22:41:30.594Z,87.89
2022-12-13T22:43:58.691Z,88.21
2022-12-13T22:46:26.661Z,88.99
2022-12-13T22:48:53.776Z,89.28
2022-12-13T22:51:20.534Z,90.08
2022-12-13T22:53:48.460Z,90.26
2022-12-13T22:56:19.644Z,90.59
2022-12-13T22:58:46.728Z,90.75
2022-12-13T23:01:16.854Z,90.45
2022-12-13T23:03:45.109Z,90.50
2022-12-13T23:06:13.370Z,91.17
2022-12-13T23:08:43.572Z,91.95
2022-12-13T23:11:27.438Z,92.34
2022-12-13T23:13:55.830Z,92.44
2022-12-13T23:16:25.141Z,92.99
2022-12-13T23:19:05.254Z,93.15
2022-12-13T23:21:38.519Z,92.70
2022-12-13T23:24:09.691Z,92.98
2022-12-13T23:26:37.161Z,93.66
2022-12-13T23:29:08.029Z,93.58
2022-12-13T23:31:38.705Z,93.71
2022-12-13T23:34:06.664Z,93.90
2022-12-13T23:36:34.168Z,93.91
2022-12-13T23:39:02.600Z,94.05
2022-12-13T23:41:34.434Z,94.29
2022-12-13T23:44:01.161Z,94.90
2022-12-13T23:46:31.723Z,94.53
2022-12-13T23:49:01.595Z,94.84
2022-12-13T23:51:28.896Z,94.83
2022-12-13T23:53:55.713Z,95.18
2022-12-13T23:56:23.552Z,95.10
2022-12-13T23:58:50.953Z,95.32
